sensor_id;sensor_type;location;lat;lon;timestamp;temperature;humidity
21403;DHT22;10862;51.886;17.078;2024-02-14T00:01:14;2.00;99.90
21403;DHT22;10862;51.886;17.078;2024-02-14T00:03:40;2.00;99.90
21403;DHT22;10862;51.886;17.078;2024-02-14T00:06:05;2.10;99.90
21403;DHT22;10862;51.886;17.078;2024-02-14T00:08:31;2.00;99.90
21403;DHT22;10862;51.886;17.078;2024-02-14T00:10:56;2.80;99.90
21403;DHT22;10862;51.886;17.078;2024-02-14T00:13:22;3.40;99.90
21403;DHT22;10862;51.886;17.078;2024-02-14T00:15:48;1.50;99.90
21403;DHT22;10862;51.886;17.078;2024-02-14T00:18:13;2.20;99.90
21403;DHT22;10862;51.886;17.078;2024-02-14T00:20:39;1.60;99.90
21403;DHT22;10862;51.886;17.078;2024-02-14T00:23:05;1.60;99.90
21403;DHT22;10862;51.886;17.078;2024-02-14T00:25:30;1.90;99.90
21403;DHT22;10862;51.886;17.078;2024-02-14T00:27:56;1.80;99.90
21403;DHT22;10862;51.886;17.078;2024-02-14T00:30:21;1.90;99.90
21403;DHT22;10862;51.886;17.078;2024-02-14T00:32:48;2.00;99.90
21403;DHT22;10862;51.886;17.078;2024-02-14T00:35:14;2.90;99.90
21403;DHT22;10862;51.886;17.078;2024-02-14T00:37:39;2.30;99.90
21403;DHT22;10862;51.886;17.078;2024-02-14T00:40:05;2.20;99.90
21403;DHT22;10862;51.886;17.078;2024-02-14T00:42:31;2.20;99.90
21403;DHT22;10862;51.886;17.078;2024-02-14T00:44:56;3.40;99.90
21403;DHT22;10862;51.886;17.078;2024-02-14T00:47:22;2.10;99.90
21403;DHT22;10862;51.886;17.078;2024-02-14T00:49:47;2.00;99.90
21403;DHT22;10862;51.886;17.078;2024-02-14T00:52:13;1.90;99.90
21403;DHT22;10862;51.886;17.078;2024-02-14T00:54:38;2.30;99.90
21403;DHT22;10862;51.886;17.078;2024-02-14T00:57:04;1.80;99.90
21403;DHT22;10862;51.886;17.078;2024-02-14T00:59:30;2.70;99.90
21403;DHT22;10862;51.886;17.078;2024-02-14T01:01:55;3.10;99.90
21403;DHT22;10862;51.886;17.078;2024-02-14T01:04:21;3.00;99.90
21403;DHT22;10862;51.886;17.078;2024-02-14T01:06:46;2.80;99.90
21403;DHT22;10862;51.886;17.078;2024-02-14T01:09:13;2.00;99.90
21403;DHT22;10862;51.886;17.078;2024-02-14T01:11:39;1.90;99.90
21403;DHT22;10862;51.886;17.078;2024-02-14T01:14:04;2.50;99.90
21403;DHT22;10862;51.886;17.078;2024-02-14T01:16:30;1.80;99.90
21403;DHT22;10862;51.886;17.078;2024-02-14T01:18:55;2.00;99.90
21403;DHT22;10862;51.886;17.078;2024-02-14T01:21:21;3.00;99.90
21403;DHT22;10862;51.886;17.078;2024-02-14T01:23:47;1.70;99.90
21403;DHT22;10862;51.886;17.078;2024-02-14T01:26:13;1.70;99.90
21403;DHT22;10862;51.886;17.078;2024-02-14T01:28:39;1.70;99.90
21403;DHT22;10862;51.886;17.078;2024-02-14T01:31:05;1.70;99.90
21403;DHT22;10862;51.886;17.078;2024-02-14T01:33:30;1.70;99.90
21403;DHT22;10862;51.886;17.078;2024-02-14T01:35:56;1.70;99.90
21403;DHT22;10862;51.886;17.078;2024-02-14T01:38:23;3.20;99.90
21403;DHT22;10862;51.886;17.078;2024-02-14T01:40:48;2.00;99.90
21403;DHT22;10862;51.886;17.078;2024-02-14T01:43:14;3.60;99.90
21403;DHT22;10862;51.886;17.078;2024-02-14T01:45:39;3.10;99.90
21403;DHT22;10862;51.886;17.078;2024-02-14T01:48:05;3.70;99.90
21403;DHT22;10862;51.886;17.078;2024-02-14T01:50:32;2.60;99.90
21403;DHT22;10862;51.886;17.078;2024-02-14T01:52:58;2.30;99.90
21403;DHT22;10862;51.886;17.078;2024-02-14T01:55:24;2.40;99.90
21403;DHT22;10862;51.886;17.078;2024-02-14T01:57:51;1.90;99.90
21403;DHT22;10862;51.886;17.078;2024-02-14T02:00:17;2.00;99.90
21403;DHT22;10862;51.886;17.078;2024-02-14T02:02:43;1.90;99.90
21403;DHT22;10862;51.886;17.078;2024-02-14T02:05:09;2.70;99.90
21403;DHT22;10862;51.886;17.078;2024-02-14T02:07:35;1.90;99.90
21403;DHT22;10862;51.886;17.078;2024-02-14T02:10:01;3.10;99.90
21403;DHT22;10862;51.886;17.078;2024-02-14T02:12:27;2.60;99.90
21403;DHT22;10862;51.886;17.078;2024-02-14T02:14:53;2.30;99.90
21403;DHT22;10862;51.886;17.078;2024-02-14T02:17:18;2.70;99.90
21403;DHT22;10862;51.886;17.078;2024-02-14T02:19:44;2.70;99.90
21403;DHT22;10862;51.886;17.078;2024-02-14T02:22:09;1.70;99.90
21403;DHT22;10862;51.886;17.078;2024-02-14T02:24:35;1.50;99.90
21403;DHT22;10862;51.886;17.078;2024-02-14T02:27:01;1.30;99.90
21403;DHT22;10862;51.886;17.078;2024-02-14T02:29:27;1.60;99.90
21403;DHT22;10862;51.886;17.078;2024-02-14T02:31:52;2.10;99.90
21403;DHT22;10862;51.886;17.078;2024-02-14T02:34:19;1.50;99.90
21403;DHT22;10862;51.886;17.078;2024-02-14T02:36:44;1.60;99.90
21403;DHT22;10862;51.886;17.078;2024-02-14T02:39:13;1.40;99.90
21403;DHT22;10862;51.886;17.078;2024-02-14T02:41:39;1.50;99.90
21403;DHT22;10862;51.886;17.078;2024-02-14T02:44:04;2.00;99.90
21403;DHT22;10862;51.886;17.078;2024-02-14T02:46:32;2.20;99.90
21403;DHT22;10862;51.886;17.078;2024-02-14T02:48:57;2.10;99.90
21403;DHT22;10862;51.886;17.078;2024-02-14T02:51:23;1.30;99.90
21403;DHT22;10862;51.886;17.078;2024-02-14T02:53:49;1.30;99.90
21403;DHT22;10862;51.886;17.078;2024-02-14T02:56:14;1.40;99.90
21403;DHT22;10862;51.886;17.078;2024-02-14T02:58:40;2.70;99.90
21403;DHT22;10862;51.886;17.078;2024-02-14T03:01:09;1.50;99.90
21403;DHT22;10862;51.886;17.078;2024-02-14T03:03:35;1.50;99.90
21403;DHT22;10862;51.886;17.078;2024-02-14T03:06:03;1.40;99.90
21403;DHT22;10862;51.886;17.078;2024-02-14T03:08:29;1.50;99.90
21403;DHT22;10862;51.886;17.078;2024-02-14T03:10:56;1.30;99.90
21403;DHT22;10862;51.886;17.078;2024-02-14T03:13:24;1.30;99.90
21403;DHT22;10862;51.886;17.078;2024-02-14T03:15:50;1.50;99.90
21403;DHT22;10862;51.886;17.078;2024-02-14T03:18:15;1.60;99.90
21403;DHT22;10862;51.886;17.078;2024-02-14T03:20:41;1.50;99.90
21403;DHT22;10862;51.886;17.078;2024-02-14T03:23:06;2.70;99.90
21403;DHT22;10862;51.886;17.078;2024-02-14T03:25:32;1.80;99.90
21403;DHT22;10862;51.886;17.078;2024-02-14T03:27:57;2.00;99.90
21403;DHT22;10862;51.886;17.078;2024-02-14T03:30:23;2.00;99.90
21403;DHT22;10862;51.886;17.078;2024-02-14T03:32:49;2.60;99.90
21403;DHT22;10862;51.886;17.078;2024-02-14T03:35:15;1.70;99.90
21403;DHT22;10862;51.886;17.078;2024-02-14T03:37:41;1.60;99.90
21403;DHT22;10862;51.886;17.078;2024-02-14T03:40:08;1.60;99.90
21403;DHT22;10862;51.886;17.078;2024-02-14T03:42:36;1.70;99.90
21403;DHT22;10862;51.886;17.078;2024-02-14T03:45:05;1.80;99.90
21403;DHT22;10862;51.886;17.078;2024-02-14T03:47:31;1.80;99.90
21403;DHT22;10862;51.886;17.078;2024-02-14T03:49:58;1.80;99.90
21403;DHT22;10862;51.886;17.078;2024-02-14T03:52:23;1.90;99.90
21403;DHT22;10862;51.886;17.078;2024-02-14T03:54:49;1.60;99.90
21403;DHT22;10862;51.886;17.078;2024-02-14T03:57:16;1.40;99.90
21403;DHT22;10862;51.886;17.078;2024-02-14T03:59:46;1.30;99.90
21403;DHT22;10862;51.886;17.078;2024-02-14T04:02:11;1.20;99.90
21403;DHT22;10862;51.886;17.078;2024-02-14T04:04:37;1.30;99.90
21403;DHT22;10862;51.886;17.078;2024-02-14T04:07:03;1.20;99.90
21403;DHT22;10862;51.886;17.078;2024-02-14T04:09:29;1.30;99.90
21403;DHT22;10862;51.886;17.078;2024-02-14T04:11:54;1.30;99.90
21403;DHT22;10862;51.886;17.078;2024-02-14T04:14:20;1.20;99.90
21403;DHT22;10862;51.886;17.078;2024-02-14T04:16:46;1.20;99.90
21403;DHT22;10862;51.886;17.078;2024-02-14T04:19:12;1.20;99.90
21403;DHT22;10862;51.886;17.078;2024-02-14T04:21:38;1.50;99.90
21403;DHT22;10862;51.886;17.078;2024-02-14T04:24:04;2.20;99.90
21403;DHT22;10862;51.886;17.078;2024-02-14T04:26:29;1.50;99.90
21403;DHT22;10862;51.886;17.078;2024-02-14T04:28:55;1.30;99.90
21403;DHT22;10862;51.886;17.078;2024-02-14T04:31:20;1.30;99.90
21403;DHT22;10862;51.886;17.078;2024-02-14T04:33:46;1.20;99.90
21403;DHT22;10862;51.886;17.078;2024-02-14T04:36:17;1.20;99.90
21403;DHT22;10862;51.886;17.078;2024-02-14T04:38:43;1.10;99.90
21403;DHT22;10862;51.886;17.078;2024-02-14T04:41:09;1.20;99.90
21403;DHT22;10862;51.886;17.078;2024-02-14T04:43:35;1.30;99.90
21403;DHT22;10862;51.886;17.078;2024-02-14T04:46:01;1.20;99.90
21403;DHT22;10862;51.886;17.078;2024-02-14T04:48:26;2.00;99.90
21403;DHT22;10862;51.886;17.078;2024-02-14T04:50:53;1.40;99.90
21403;DHT22;10862;51.886;17.078;2024-02-14T04:53:18;1.50;99.90
21403;DHT22;10862;51.886;17.078;2024-02-14T04:55:44;1.40;99.90
21403;DHT22;10862;51.886;17.078;2024-02-14T04:58:10;1.40;99.90
21403;DHT22;10862;51.886;17.078;2024-02-14T05:00:35;2.50;99.90
21403;DHT22;10862;51.886;17.078;2024-02-14T05:03:01;3.00;99.90
21403;DHT22;10862;51.886;17.078;2024-02-14T05:05:27;1.70;99.90
21403;DHT22;10862;51.886;17.078;2024-02-14T05:07:53;3.10;99.90
21403;DHT22;10862;51.886;17.078;2024-02-14T05:10:19;1.80;99.90
21403;DHT22;10862;51.886;17.078;2024-02-14T05:12:44;1.70;99.90
21403;DHT22;10862;51.886;17.078;2024-02-14T05:15:10;2.20;99.90
21403;DHT22;10862;51.886;17.078;2024-02-14T05:17:37;2.00;99.90
21403;DHT22;10862;51.886;17.078;2024-02-14T05:20:03;1.80;99.90
21403;DHT22;10862;51.886;17.078;2024-02-14T05:22:35;1.70;99.90
21403;DHT22;10862;51.886;17.078;2024-02-14T05:25:01;1.40;99.90
21403;DHT22;10862;51.886;17.078;2024-02-14T05:27:28;1.40;99.90
21403;DHT22;10862;51.886;17.078;2024-02-14T05:29:54;2.40;99.90
21403;DHT22;10862;51.886;17.078;2024-02-14T05:32:19;1.20;99.90
21403;DHT22;10862;51.886;17.078;2024-02-14T05:34:45;2.50;99.90
21403;DHT22;10862;51.886;17.078;2024-02-14T05:37:10;2.10;99.90
21403;DHT22;10862;51.886;17.078;2024-02-14T05:39:36;1.20;99.90
21403;DHT22;10862;51.886;17.078;2024-02-14T05:42:01;1.80;99.90
21403;DHT22;10862;51.886;17.078;2024-02-14T05:44:27;2.90;99.90
21403;DHT22;10862;51.886;17.078;2024-02-14T05:46:55;1.50;99.90
21403;DHT22;10862;51.886;17.078;2024-02-14T05:49:21;1.30;99.90
21403;DHT22;10862;51.886;17.078;2024-02-14T05:51:47;0.90;99.90
21403;DHT22;10862;51.886;17.078;2024-02-14T05:54:12;1.60;99.90
21403;DHT22;10862;51.886;17.078;2024-02-14T05:56:38;1.40;99.90
21403;DHT22;10862;51.886;17.078;2024-02-14T05:59:03;2.70;99.90
21403;DHT22;10862;51.886;17.078;2024-02-14T06:01:28;1.70;99.90
21403;DHT22;10862;51.886;17.078;2024-02-14T06:03:54;3.10;99.90
21403;DHT22;10862;51.886;17.078;2024-02-14T06:06:19;2.80;99.90
21403;DHT22;10862;51.886;17.078;2024-02-14T06:08:45;1.50;99.90
21403;DHT22;10862;51.886;17.078;2024-02-14T06:11:10;1.50;99.90
21403;DHT22;10862;51.886;17.078;2024-02-14T06:13:37;1.40;99.90
21403;DHT22;10862;51.886;17.078;2024-02-14T06:16:03;1.40;99.90
21403;DHT22;10862;51.886;17.078;2024-02-14T06:18:28;1.60;99.90
21403;DHT22;10862;51.886;17.078;2024-02-14T06:20:54;1.50;99.90
21403;DHT22;10862;51.886;17.078;2024-02-14T06:23:19;2.40;99.90
21403;DHT22;10862;51.886;17.078;2024-02-14T06:25:45;1.50;99.90
21403;DHT22;10862;51.886;17.078;2024-02-14T06:28:11;1.40;99.90
21403;DHT22;10862;51.886;17.078;2024-02-14T06:30:36;1.50;99.90
21403;DHT22;10862;51.886;17.078;2024-02-14T06:33:02;1.70;99.90
21403;DHT22;10862;51.886;17.078;2024-02-14T06:35:28;1.70;99.90
21403;DHT22;10862;51.886;17.078;2024-02-14T06:37:53;1.70;99.90
21403;DHT22;10862;51.886;17.078;2024-02-14T06:40:19;3.10;99.90
21403;DHT22;10862;51.886;17.078;2024-02-14T06:42:45;2.90;99.90
21403;DHT22;10862;51.886;17.078;2024-02-14T06:45:11;1.80;99.90
21403;DHT22;10862;51.886;17.078;2024-02-14T06:47:36;1.80;99.90
21403;DHT22;10862;51.886;17.078;2024-02-14T06:50:02;2.10;99.90
21403;DHT22;10862;51.886;17.078;2024-02-14T06:52:27;2.00;99.90
21403;DHT22;10862;51.886;17.078;2024-02-14T06:54:53;2.00;99.90
21403;DHT22;10862;51.886;17.078;2024-02-14T06:57:18;2.00;99.90
21403;DHT22;10862;51.886;17.078;2024-02-14T06:59:44;3.20;99.90
21403;DHT22;10862;51.886;17.078;2024-02-14T07:02:09;1.90;99.90
21403;DHT22;10862;51.886;17.078;2024-02-14T07:04:35;2.00;99.90
21403;DHT22;10862;51.886;17.078;2024-02-14T07:07:02;2.00;99.90
21403;DHT22;10862;51.886;17.078;2024-02-14T07:09:28;2.20;99.90
21403;DHT22;10862;51.886;17.078;2024-02-14T07:11:54;3.20;99.90
21403;DHT22;10862;51.886;17.078;2024-02-14T07:14:22;2.20;99.90
21403;DHT22;10862;51.886;17.078;2024-02-14T07:16:47;2.10;99.90
21403;DHT22;10862;51.886;17.078;2024-02-14T07:19:12;2.20;99.90
21403;DHT22;10862;51.886;17.078;2024-02-14T07:21:38;3.40;99.90
21403;DHT22;10862;51.886;17.078;2024-02-14T07:24:07;3.50;99.90
21403;DHT22;10862;51.886;17.078;2024-02-14T07:26:32;2.70;99.90
21403;DHT22;10862;51.886;17.078;2024-02-14T07:28:57;2.70;99.90
21403;DHT22;10862;51.886;17.078;2024-02-14T07:31:23;2.80;99.90
21403;DHT22;10862;51.886;17.078;2024-02-14T07:33:49;4.00;99.90
21403;DHT22;10862;51.886;17.078;2024-02-14T07:36:18;4.10;99.90
21403;DHT22;10862;51.886;17.078;2024-02-14T07:38:44;4.20;99.90
21403;DHT22;10862;51.886;17.078;2024-02-14T07:41:09;3.10;99.90
21403;DHT22;10862;51.886;17.078;2024-02-14T07:43:35;3.00;99.90
21403;DHT22;10862;51.886;17.078;2024-02-14T07:46:00;3.20;99.90
21403;DHT22;10862;51.886;17.078;2024-02-14T07:48:26;4.50;99.90
21403;DHT22;10862;51.886;17.078;2024-02-14T07:50:52;4.50;99.90
21403;DHT22;10862;51.886;17.078;2024-02-14T07:53:17;4.50;99.90
21403;DHT22;10862;51.886;17.078;2024-02-14T07:55:43;3.50;99.90
21403;DHT22;10862;51.886;17.078;2024-02-14T07:58:08;4.80;99.90
21403;DHT22;10862;51.886;17.078;2024-02-14T08:00:34;3.90;99.90
21403;DHT22;10862;51.886;17.078;2024-02-14T08:02:59;3.30;99.90
21403;DHT22;10862;51.886;17.078;2024-02-14T08:05:25;3.20;99.90
21403;DHT22;10862;51.886;17.078;2024-02-14T08:07:50;3.30;99.90
21403;DHT22;10862;51.886;17.078;2024-02-14T08:10:16;3.30;99.90
21403;DHT22;10862;51.886;17.078;2024-02-14T08:12:41;3.30;99.90
21403;DHT22;10862;51.886;17.078;2024-02-14T08:15:08;3.60;99.90
21403;DHT22;10862;51.886;17.078;2024-02-14T08:17:34;3.60;99.90
21403;DHT22;10862;51.886;17.078;2024-02-14T08:20:00;3.70;93.10
21403;DHT22;10862;51.886;17.078;2024-02-14T08:22:26;5.00;45.90
21403;DHT22;10862;51.886;17.078;2024-02-14T08:24:52;3.90;17.20
21403;DHT22;10862;51.886;17.078;2024-02-14T08:27:18;4.50;1.00
21403;DHT22;10862;51.886;17.078;2024-02-14T17:21:54;7.40;1.00
21403;DHT22;10862;51.886;17.078;2024-02-14T17:30:40;8.40;99.90
21403;DHT22;10862;51.886;17.078;2024-02-14T18:04:25;7.30;99.90
21403;DHT22;10862;51.886;17.078;2024-02-14T18:13:00;7.50;99.90
